Time;durP1;ratioP1;P1;durP2;ratioP2;P2;SDS_P1;SDS_P2;PMS_P1;PMS_P2;Temp;Humidity;BMP_temperature;BMP_pressure;BME280_temperature;BME280_humidity;BME280_pressure;Samples;Min_cycle;Max_cycle;Signal;HPM_P1;HPM_P2
2022/04/23 00:00:23;;;;;;;;;;;11.70;90.00;;;;;;5021322;28;19905;-56
2022/04/23 00:02:48;;;;;;;;;;;11.80;90.10;;;;;;5021262;28;19902;-57
2022/04/23 00:05:14;;;;;;;;;;;11.80;90.00;;;;;;5021149;28;19906;-56
2022/04/23 00:07:40;;;;;;;;;;;11.80;90.00;;;;;;5021173;28;19905;-57
2022/04/23 00:10:06;;;;;;;;;;;11.90;90.10;;;;;;5021098;28;19978;-56
2022/04/23 00:12:32;;;;;;;;;;;11.90;90.00;;;;;;5020822;28;19906;-56
2022/04/23 00:14:57;;;;;;;;;;;12.00;89.70;;;;;;5036662;28;19913;-56
2022/04/23 00:17:23;;;;;;;;;;;12.00;89.30;;;;;;5020882;28;19898;-56
2022/04/23 00:19:48;;;;;;;;;;;12.00;89.00;;;;;;5020966;28;19940;-56
2022/04/23 00:22:16;;;;;;;;;;;12.00;89.40;;;;;;5020623;28;19925;-56
2022/04/23 00:24:42;;;;;;;;;;;11.80;88.80;;;;;;5020811;28;19898;-56
2022/04/23 00:27:08;;;;;;;;;;;11.70;89.30;;;;;;5020721;28;19902;-56
2022/04/23 00:29:35;;;;;;;;;;;11.70;89.30;;;;;;5020832;28;19988;-56
2022/04/23 00:32:00;;;;;;;;;;;11.60;89.60;;;;;;5020642;28;19898;-56
2022/04/23 00:34:26;;;;;;;;;;;11.70;89.60;;;;;;5020724;28;19921;-56
2022/04/23 00:36:51;;;;;;;;;;;11.60;89.60;;;;;;5020671;28;19909;-56
2022/04/23 00:39:17;;;;;;;;;;;11.60;89.30;;;;;;5020524;28;19898;-56
2022/04/23 00:41:46;;;;;;;;;;;11.50;89.60;;;;;;5020422;28;19918;-56
2022/04/23 00:44:15;;;;;;;;;;;11.60;89.80;;;;;;5020574;28;19921;-57
2022/04/23 00:46:42;;;;;;;;;;;11.60;89.80;;;;;;5020522;28;19922;-56
2022/04/23 00:49:07;;;;;;;;;;;11.60;89.80;;;;;;5020360;28;19905;-56
2022/04/23 00:51:33;;;;;;;;;;;11.60;89.80;;;;;;5020350;28;19902;-56
2022/04/23 00:54:01;;;;;;;;;;;11.60;89.70;;;;;;5020340;28;19906;-56
2022/04/23 00:56:26;;;;;;;;;;;11.70;89.70;;;;;;5020366;28;19925;-55
2022/04/23 00:58:52;;;;;;;;;;;11.90;89.50;;;;;;5019704;28;19961;-56
2022/04/23 01:01:23;;;;;;;;;;;11.90;89.00;;;;;;5020273;28;19898;-57
2022/04/23 01:03:49;;;;;;;;;;;11.90;88.90;;;;;;5020179;28;19905;-56
2022/04/23 01:06:15;;;;;;;;;;;11.90;89.20;;;;;;5020199;28;19933;-56
2022/04/23 01:08:40;;;;;;;;;;;11.90;89.50;;;;;;5020224;28;19921;-56
2022/04/23 01:11:06;;;;;;;;;;;11.90;89.60;;;;;;5020077;28;19904;-57
2022/04/23 01:13:32;;;;;;;;;;;11.80;89.70;;;;;;5020014;28;19957;-57
2022/04/23 01:16:02;;;;;;;;;;;11.80;89.90;;;;;;5020073;28;19900;-56
2022/04/23 01:18:28;;;;;;;;;;;11.90;90.00;;;;;;5020083;28;19898;-57
2022/04/23 01:20:54;;;;;;;;;;;12.00;89.70;;;;;;5019919;28;19981;-57
2022/04/23 01:23:20;;;;;;;;;;;12.00;90.00;;;;;;5019545;28;19920;-55
2022/04/23 01:25:46;;;;;;;;;;;11.90;90.00;;;;;;5019918;28;19906;-55
2022/04/23 01:28:12;;;;;;;;;;;11.90;90.30;;;;;;5019971;28;19898;-56
2022/04/23 01:30:38;;;;;;;;;;;11.90;90.40;;;;;;5019875;28;20020;-57
2022/04/23 01:33:03;;;;;;;;;;;11.90;90.50;;;;;;5019857;28;19905;-56
2022/04/23 01:35:31;;;;;;;;;;;12.00;90.50;;;;;;5019646;28;19920;-56
2022/04/23 01:37:56;;;;;;;;;;;12.00;90.60;;;;;;5019760;28;19898;-56
2022/04/23 01:40:22;;;;;;;;;;;12.10;90.50;;;;;;5019720;28;19905;-56
2022/04/23 01:42:48;;;;;;;;;;;12.10;90.50;;;;;;5019607;28;19941;-57
2022/04/23 01:45:13;;;;;;;;;;;12.10;90.60;;;;;;5019740;28;19905;-56
2022/04/23 01:47:39;;;;;;;;;;;12.10;90.50;;;;;;5019778;28;19933;-55
2022/04/23 01:50:05;;;;;;;;;;;12.10;90.60;;;;;;5019630;28;19908;-56
2022/04/23 01:52:31;;;;;;;;;;;12.10;90.50;;;;;;5019345;28;19957;-56
2022/04/23 01:54:56;;;;;;;;;;;12.20;90.00;;;;;;5019550;28;19933;-57
2022/04/23 01:57:22;;;;;;;;;;;12.30;89.90;;;;;;5019541;28;19906;-55
2022/04/23 01:59:47;;;;;;;;;;;12.30;90.20;;;;;;5019609;28;19957;-57
2022/04/23 02:02:13;;;;;;;;;;;12.30;90.30;;;;;;5019371;28;19921;-56
2022/04/23 02:04:38;;;;;;;;;;;12.20;90.30;;;;;;5019504;28;19902;-57
2022/04/23 02:07:04;;;;;;;;;;;12.20;90.50;;;;;;5019405;28;19914;-56
2022/04/23 02:09:29;;;;;;;;;;;12.20;90.50;;;;;;5020001;28;19918;-56
2022/04/23 02:11:56;;;;;;;;;;;12.20;90.60;;;;;;5023441;28;19898;-57
2022/04/23 02:14:22;;;;;;;;;;;12.10;90.70;;;;;;5023474;28;19974;-56
2022/04/23 02:16:47;;;;;;;;;;;12.20;90.70;;;;;;5023568;28;19898;-56
2022/04/23 02:19:13;;;;;;;;;;;12.20;90.60;;;;;;5023139;28;19925;-56
2022/04/23 02:21:39;;;;;;;;;;;12.30;90.30;;;;;;5023114;28;19901;-57
2022/04/23 02:24:05;;;;;;;;;;;12.40;90.40;;;;;;5023278;28;19921;-57
2022/04/23 02:26:30;;;;;;;;;;;12.30;90.60;;;;;;5023213;28;19905;-57
2022/04/23 02:28:56;;;;;;;;;;;12.30;90.70;;;;;;5022994;28;19901;-56
2022/04/23 02:31:21;;;;;;;;;;;12.30;90.70;;;;;;5022963;28;19902;-56
2022/04/23 02:33:47;;;;;;;;;;;12.30;90.90;;;;;;5022345;28;19910;-56
2022/04/23 02:36:15;;;;;;;;;;;12.30;90.90;;;;;;5022937;28;19917;-56
2022/04/23 02:38:40;;;;;;;;;;;12.30;91.00;;;;;;5022778;28;19909;-56
2022/04/23 02:41:09;;;;;;;;;;;12.30;90.90;;;;;;5022934;28;19954;-56
2022/04/23 02:43:36;;;;;;;;;;;12.30;91.00;;;;;;5022843;28;19905;-56
2022/04/23 02:46:02;;;;;;;;;;;12.20;91.20;;;;;;5022791;28;19898;-56
2022/04/23 02:48:28;;;;;;;;;;;12.30;91.20;;;;;;5022884;28;19902;-56
2022/04/23 02:50:54;;;;;;;;;;;12.20;91.10;;;;;;5022666;28;19917;-56
2022/04/23 02:53:19;;;;;;;;;;;12.20;91.20;;;;;;5022642;28;19898;-56
2022/04/23 02:55:46;;;;;;;;;;;12.20;91.50;;;;;;5022654;28;19902;-56
2022/04/23 02:58:12;;;;;;;;;;;12.20;91.20;;;;;;5022675;28;19961;-56
2022/04/23 03:00:38;;;;;;;;;;;12.30;91.20;;;;;;5022693;28;19921;-56
2022/04/23 03:03:05;;;;;;;;;;;12.30;91.30;;;;;;5022591;28;19922;-56
2022/04/23 03:05:31;;;;;;;;;;;12.30;91.30;;;;;;5022337;28;19905;-56
2022/04/23 03:07:59;;;;;;;;;;;12.30;91.20;;;;;;5038345;28;19902;-56
2022/04/23 03:10:25;;;;;;;;;;;12.30;91.20;;;;;;5022575;28;19925;-57
2022/04/23 03:12:52;;;;;;;;;;;12.30;91.30;;;;;;5022331;28;19902;-56
2022/04/23 03:15:17;;;;;;;;;;;12.30;91.20;;;;;;5022183;28;19906;-56
2022/04/23 03:17:44;;;;;;;;;;;12.30;91.10;;;;;;5022274;28;19924;-56
2022/04/23 03:20:10;;;;;;;;;;;12.30;91.10;;;;;;5022063;28;19961;-56
2022/04/23 03:22:39;;;;;;;;;;;12.30;91.30;;;;;;5021117;28;19909;-56
2022/04/23 03:25:05;;;;;;;;;;;12.40;91.10;;;;;;5022174;28;19916;-57
2022/04/23 03:27:31;;;;;;;;;;;12.30;91.00;;;;;;5022129;28;19905;-56
2022/04/23 03:30:00;;;;;;;;;;;12.30;91.00;;;;;;5022133;28;19898;-57
2022/04/23 03:32:26;;;;;;;;;;;12.40;91.10;;;;;;5021967;28;19917;-57
2022/04/23 03:34:52;;;;;;;;;;;12.20;91.40;;;;;;5021987;28;19910;-56
2022/04/23 03:37:17;;;;;;;;;;;12.30;91.30;;;;;;5022037;28;19905;-57
2022/04/23 03:39:44;;;;;;;;;;;12.30;91.40;;;;;;5021821;28;19902;-56
2022/04/23 03:42:10;;;;;;;;;;;12.30;91.40;;;;;;5021896;28;19904;-56
2022/04/23 03:44:35;;;;;;;;;;;12.30;91.40;;;;;;5021847;28;19898;-57
2022/04/23 03:47:01;;;;;;;;;;;12.30;91.40;;;;;;5021772;28;19905;-56
2022/04/23 03:49:28;;;;;;;;;;;12.40;91.40;;;;;;5021260;28;19898;-56
2022/04/23 03:51:54;;;;;;;;;;;12.40;91.30;;;;;;5021582;28;19910;-57
2022/04/23 03:54:20;;;;;;;;;;;12.40;90.80;;;;;;5021567;28;19933;-56
2022/04/23 03:56:46;;;;;;;;;;;12.50;90.80;;;;;;5021587;28;19904;-56
2022/04/23 03:59:11;;;;;;;;;;;12.50;90.90;;;;;;5020908;28;19929;-55
2022/04/23 04:01:37;;;;;;;;;;;12.40;90.80;;;;;;5021472;28;19961;-56
2022/04/23 04:04:02;;;;;;;;;;;12.50;90.80;;;;;;5021404;28;19897;-56
2022/04/23 04:06:28;;;;;;;;;;;12.40;90.90;;;;;;5021404;28;19922;-57
2022/04/23 04:08:55;;;;;;;;;;;12.50;90.80;;;;;;5021338;28;19910;-57
2022/04/23 04:11:20;;;;;;;;;;;12.50;91.00;;;;;;5021348;28;19965;-57
2022/04/23 04:13:47;;;;;;;;;;;12.50;90.50;;;;;;5021353;28;19906;-57
2022/04/23 04:16:13;;;;;;;;;;;12.50;91.20;;;;;;5021130;28;19898;-56
2022/04/23 04:18:39;;;;;;;;;;;12.50;90.90;;;;;;5021223;28;19905;-57
2022/04/23 04:21:05;;;;;;;;;;;12.50;90.80;;;;;;5021042;28;19917;-57
2022/04/23 04:23:30;;;;;;;;;;;12.50;90.70;;;;;;5020945;28;19934;-57
2022/04/23 04:25:56;;;;;;;;;;;12.50;90.50;;;;;;5021046;28;19905;-57
2022/04/23 04:28:21;;;;;;;;;;;12.60;90.10;;;;;;5020999;28;19906;-56
2022/04/23 04:33:32;;;;;;;;;;;12.60;90.20;;;;;;5019813;28;19925;-58
2022/04/23 04:35:57;;;;;;;;;;;12.70;90.20;;;;;;5020778;28;19898;-57
2022/04/23 04:38:23;;;;;;;;;;;12.70;90.00;;;;;;5020867;28;19898;-57
2022/04/23 04:40:49;;;;;;;;;;;12.70;90.00;;;;;;5020772;28;19898;-57
2022/04/23 04:43:14;;;;;;;;;;;12.70;90.40;;;;;;5020677;28;19949;-57
2022/04/23 04:45:40;;;;;;;;;;;12.70;90.30;;;;;;5020466;28;19909;-56
2022/04/23 04:48:06;;;;;;;;;;;12.80;89.40;;;;;;5020564;28;20847;-57
2022/04/23 04:50:31;;;;;;;;;;;12.80;89.00;;;;;;5020569;28;19925;-56
2022/04/23 04:52:57;;;;;;;;;;;12.70;89.90;;;;;;5020427;28;19898;-56
2022/04/23 04:55:23;;;;;;;;;;;12.80;89.90;;;;;;5020472;28;19930;-57
2022/04/23 04:57:49;;;;;;;;;;;12.90;88.20;;;;;;5020516;28;19898;-56
2022/04/23 05:00:15;;;;;;;;;;;12.90;88.90;;;;;;5020428;28;19920;-57
2022/04/23 05:02:41;;;;;;;;;;;12.90;89.40;;;;;;5020262;28;19898;-56
2022/04/23 05:05:07;;;;;;;;;;;12.80;90.20;;;;;;5020285;28;19898;-56
2022/04/23 05:07:32;;;;;;;;;;;12.80;90.40;;;;;;5019147;28;19902;-57
2022/04/23 05:10:00;;;;;;;;;;;12.80;90.60;;;;;;5020216;28;19898;-57
2022/04/23 05:12:25;;;;;;;;;;;12.80;90.80;;;;;;5020173;28;19922;-57
2022/04/23 05:14:51;;;;;;;;;;;12.90;90.30;;;;;;5020093;28;19912;-56
2022/04/23 05:17:16;;;;;;;;;;;12.90;90.50;;;;;;5020073;28;19902;-56
2022/04/23 05:19:42;;;;;;;;;;;13.00;90.60;;;;;;5019927;28;19898;-57
2022/04/23 05:22:07;;;;;;;;;;;13.00;90.50;;;;;;5019828;28;19916;-56
2022/04/23 05:24:33;;;;;;;;;;;13.00;89.60;;;;;;5019988;28;19925;-57
2022/04/23 05:26:58;;;;;;;;;;;13.10;87.30;;;;;;5019921;28;19957;-57
2022/04/23 05:29:24;;;;;;;;;;;13.20;87.20;;;;;;5019823;28;19906;-58
2022/04/23 05:31:49;;;;;;;;;;;13.30;85.50;;;;;;5019752;28;19898;-57
2022/04/23 05:34:15;;;;;;;;;;;13.40;84.80;;;;;;5019686;28;19948;-57
2022/04/23 05:36:40;;;;;;;;;;;13.40;85.30;;;;;;5019788;28;19898;-57
2022/04/23 05:39:06;;;;;;;;;;;13.50;84.70;;;;;;5035349;28;19969;-57
2022/04/23 05:41:31;;;;;;;;;;;13.60;85.30;;;;;;5019624;28;20064;-56
2022/04/23 05:43:58;;;;;;;;;;;13.70;85.90;;;;;;5019338;28;19934;-56
2022/04/23 05:46:23;;;;;;;;;;;13.60;88.00;;;;;;5019309;28;19898;-56
2022/04/23 05:48:49;;;;;;;;;;;13.60;89.00;;;;;;5019484;28;19902;-55
2022/04/23 05:51:15;;;;;;;;;;;13.60;88.90;;;;;;5019266;28;19901;-56
2022/04/23 05:53:41;;;;;;;;;;;13.60;89.40;;;;;;5019480;28;19929;-56
2022/04/23 05:56:07;;;;;;;;;;;13.60;90.00;;;;;;5019431;28;19906;-55
2022/04/23 05:58:33;;;;;;;;;;;13.60;90.00;;;;;;5019308;28;19954;-55
2022/04/23 06:00:59;;;;;;;;;;;13.90;87.20;;;;;;5019481;28;19922;-56
2022/04/23 06:03:24;;;;;;;;;;;14.30;86.40;;;;;;5019307;28;19914;-55
2022/04/23 06:05:50;;;;;;;;;;;14.70;82.90;;;;;;5019247;28;19941;-56
2022/04/23 06:08:16;;;;;;;;;;;15.30;80.50;;;;;;5019356;28;19961;-55
2022/04/23 06:10:41;;;;;;;;;;;15.80;77.60;;;;;;5019334;28;19905;-55
2022/04/23 06:13:08;;;;;;;;;;;16.10;76.20;;;;;;5018932;28;19898;-55
2022/04/23 06:15:34;;;;;;;;;;;16.30;74.50;;;;;;5018845;28;19933;-57
2022/04/23 06:18:00;;;;;;;;;;;15.80;78.10;;;;;;5019087;28;19918;-55
2022/04/23 06:20:25;;;;;;;;;;;15.90;78.70;;;;;;5019179;28;19898;-56
2022/04/23 06:22:51;;;;;;;;;;;15.80;78.70;;;;;;5018944;28;19917;-55
2022/04/23 06:25:16;;;;;;;;;;;15.50;78.30;;;;;;5019143;28;19930;-56
2022/04/23 06:27:42;;;;;;;;;;;15.30;79.10;;;;;;5018576;28;19905;-56
2022/04/23 06:30:09;;;;;;;;;;;15.50;80.60;;;;;;5018971;28;19917;-56
2022/04/23 06:32:35;;;;;;;;;;;15.40;80.70;;;;;;5018830;28;19933;-57
2022/04/23 06:35:01;;;;;;;;;;;15.50;81.00;;;;;;5019026;28;19909;-56
2022/04/23 06:37:26;;;;;;;;;;;15.80;79.30;;;;;;5018808;28;19902;-56
2022/04/23 06:39:52;;;;;;;;;;;15.90;77.40;;;;;;5018418;28;19933;-56
2022/04/23 06:42:18;;;;;;;;;;;15.90;78.00;;;;;;5018275;28;19922;-58
2022/04/23 06:44:43;;;;;;;;;;;15.80;77.60;;;;;;5018642;28;19941;-56
2022/04/23 06:47:09;;;;;;;;;;;15.80;77.50;;;;;;5018472;28;19902;-58
2022/04/23 06:49:35;;;;;;;;;;;15.70;76.70;;;;;;5018499;28;19909;-55
2022/04/23 06:52:00;;;;;;;;;;;15.70;76.20;;;;;;5018697;28;19929;-56
2022/04/23 06:54:26;;;;;;;;;;;15.40;77.80;;;;;;5018675;28;19928;-54
2022/04/23 06:56:52;;;;;;;;;;;15.30;77.10;;;;;;5019490;28;19968;-56
2022/04/23 06:59:17;;;;;;;;;;;15.00;79.20;;;;;;5022066;28;19908;-56
2022/04/23 07:01:43;;;;;;;;;;;15.10;79.40;;;;;;5022104;28;19957;-58
2022/04/23 07:04:09;;;;;;;;;;;14.90;79.60;;;;;;5022182;28;19929;-57
2022/04/23 07:06:34;;;;;;;;;;;14.80;79.50;;;;;;5022079;28;19972;-57
2022/04/23 07:09:00;;;;;;;;;;;14.80;80.40;;;;;;5021940;28;19921;-59
2022/04/23 07:11:26;;;;;;;;;;;14.80;81.80;;;;;;5021646;28;19962;-59
2022/04/23 07:13:51;;;;;;;;;;;14.80;82.80;;;;;;5021856;28;19910;-59
2022/04/23 07:16:17;;;;;;;;;;;14.90;82.80;;;;;;5021760;28;19909;-58
2022/04/23 07:18:43;;;;;;;;;;;14.90;82.70;;;;;;5021677;28;19902;-58
2022/04/23 07:21:08;;;;;;;;;;;14.90;81.10;;;;;;5021549;28;19906;-60
2022/04/23 07:26:19;;;;;;;;;;;14.80;81.50;;;;;;5021490;28;19909;-59
2022/04/23 07:28:45;;;;;;;;;;;14.50;81.90;;;;;;5021584;28;19972;-58
2022/04/23 07:31:10;;;;;;;;;;;14.50;82.90;;;;;;5021467;28;19898;-56
2022/04/23 07:39:04;;;;;;;;;;;14.50;83.40;;;;;;5021450;28;19926;-56
2022/04/23 07:41:30;;;;;;;;;;;14.50;83.30;;;;;;5021430;28;19902;-56
2022/04/23 07:43:58;;;;;;;;;;;14.60;83.70;;;;;;5021356;28;19902;-57
2022/04/23 07:46:24;;;;;;;;;;;14.80;84.00;;;;;;5021306;28;19958;-56
2022/04/23 07:48:50;;;;;;;;;;;14.90;83.00;;;;;;5021188;28;19898;-56
2022/04/23 07:51:16;;;;;;;;;;;15.10;83.00;;;;;;5020589;28;19904;-56
2022/04/23 07:53:42;;;;;;;;;;;15.20;82.10;;;;;;5021223;28;19898;-57
2022/04/23 07:56:07;;;;;;;;;;;15.30;82.10;;;;;;5021318;28;19924;-58
2022/04/23 07:58:33;;;;;;;;;;;15.30;82.10;;;;;;5021436;28;19901;-59
2022/04/23 08:00:58;;;;;;;;;;;15.40;82.00;;;;;;5021239;28;19898;-58
2022/04/23 08:03:24;;;;;;;;;;;15.10;80.80;;;;;;5020921;28;19906;-57
2022/04/23 08:05:50;;;;;;;;;;;15.10;81.10;;;;;;5020840;28;19902;-58
2022/04/23 08:08:17;;;;;;;;;;;14.90;82.10;;;;;;5020845;28;19924;-58
2022/04/23 08:10:46;;;;;;;;;;;14.80;83.10;;;;;;5020861;28;19905;-57
2022/04/23 08:13:12;;;;;;;;;;;15.10;82.60;;;;;;5020600;28;19921;-58
2022/04/23 08:15:37;;;;;;;;;;;15.40;82.10;;;;;;5020674;28;19929;-57
2022/04/23 08:18:03;;;;;;;;;;;15.50;81.70;;;;;;5020915;28;19925;-59
2022/04/23 08:20:32;;;;;;;;;;;15.70;81.30;;;;;;5020548;28;19929;-57
2022/04/23 08:22:57;;;;;;;;;;;15.80;79.70;;;;;;5020475;28;19949;-59
2022/04/23 08:25:23;;;;;;;;;;;16.00;77.90;;;;;;5020684;28;19925;-58
2022/04/23 08:27:53;;;;;;;;;;;16.20;76.30;;;;;;5020854;28;19897;-57
2022/04/23 08:30:34;;;;;;;;;;;16.50;75.30;;;;;;5020661;28;19929;-57
2022/04/23 08:33:04;;;;;;;;;;;16.70;74.80;;;;;;5020327;28;19958;-56
2022/04/23 08:35:29;;;;;;;;;;;16.80;75.00;;;;;;5020561;28;19917;-56
2022/04/23 08:37:55;;;;;;;;;;;16.90;75.00;;;;;;5020488;28;19969;-59
2022/04/23 08:40:21;;;;;;;;;;;17.00;73.40;;;;;;5035962;28;19906;-57
2022/04/23 08:42:47;;;;;;;;;;;17.10;73.60;;;;;;5020211;28;19913;-56
2022/04/23 08:45:13;;;;;;;;;;;17.30;72.10;;;;;;5020362;28;19901;-57
2022/04/23 08:47:41;;;;;;;;;;;17.30;70.80;;;;;;5020351;28;19902;-57
2022/04/23 08:50:08;;;;;;;;;;;17.30;69.30;;;;;;5020249;28;19902;-57
2022/04/23 08:52:33;;;;;;;;;;;17.10;69.80;;;;;;5020241;28;19902;-57
2022/04/23 08:55:00;;;;;;;;;;;17.10;70.70;;;;;;5020202;28;20002;-58
2022/04/23 08:57:26;;;;;;;;;;;16.70;72.20;;;;;;5020119;28;19898;-58
2022/04/23 08:59:53;;;;;;;;;;;16.70;73.30;;;;;;5020200;28;19936;-57
2022/04/23 09:02:19;;;;;;;;;;;16.70;74.00;;;;;;5019664;28;19909;-57
2022/04/23 09:04:44;;;;;;;;;;;16.70;76.10;;;;;;5020145;28;19937;-57
2022/04/23 09:07:17;;;;;;;;;;;16.70;74.10;;;;;;5020039;28;19921;-58
2022/04/23 09:09:46;;;;;;;;;;;16.90;73.60;;;;;;5019961;28;19898;-59
2022/04/23 09:12:12;;;;;;;;;;;16.80;72.00;;;;;;5019974;28;19898;-58
2022/04/23 09:14:38;;;;;;;;;;;16.80;72.90;;;;;;5019665;28;19929;-57
2022/04/23 09:25:28;;;;;;;;;;;16.30;72.90;;;;;;5038982;28;19911;-56
2022/04/23 09:27:54;;;;;;;;;;;16.50;74.30;;;;;;5039267;28;19924;-58
2022/04/23 09:30:20;;;;;;;;;;;16.50;75.00;;;;;;5039316;28;19901;-58
2022/04/23 09:32:58;;;;;;;;;;;16.50;73.90;;;;;;5039234;28;19904;-57
2022/04/23 09:35:24;;;;;;;;;;;16.60;75.20;;;;;;5039063;28;19936;-58
2022/04/23 09:40:34;;;;;;;;;;;16.50;74.10;;;;;;5039281;28;19909;-57
2022/04/23 09:43:01;;;;;;;;;;;16.00;76.00;;;;;;5038656;28;19965;-58
2022/04/23 09:45:28;;;;;;;;;;;16.20;77.30;;;;;;5038881;28;19902;-56
2022/04/23 09:48:17;;;;;;;;;;;16.30;75.40;;;;;;5038958;28;19901;-57
2022/04/23 09:50:44;;;;;;;;;;;16.50;75.70;;;;;;5039102;28;19904;-58
2022/04/23 09:53:09;;;;;;;;;;;16.60;74.30;;;;;;5038811;28;19902;-58
2022/04/23 09:55:36;;;;;;;;;;;16.60;73.50;;;;;;5038919;28;19921;-57
2022/04/23 09:58:03;;;;;;;;;;;16.30;73.60;;;;;;5039233;28;19908;-57
2022/04/23 10:00:29;;;;;;;;;;;16.50;75.10;;;;;;5039032;28;19902;-57
2022/04/23 10:02:58;;;;;;;;;;;16.70;75.20;;;;;;5039053;28;19905;-57
2022/04/23 10:05:24;;;;;;;;;;;16.90;73.10;;;;;;5039069;28;19901;-56
2022/04/23 10:07:50;;;;;;;;;;;17.00;73.00;;;;;;5039073;28;19904;-57
2022/04/23 10:10:17;;;;;;;;;;;16.80;73.00;;;;;;5038259;28;19933;-58
2022/04/23 10:12:43;;;;;;;;;;;16.60;72.80;;;;;;5038791;28;19901;-58
2022/04/23 10:15:09;;;;;;;;;;;16.70;74.00;;;;;;5038201;28;19906;-58
2022/04/23 10:17:35;;;;;;;;;;;17.00;74.50;;;;;;5038285;28;19948;-59
2022/04/23 10:20:02;;;;;;;;;;;17.10;71.90;;;;;;5038730;28;19901;-57
2022/04/23 10:22:31;;;;;;;;;;;17.20;73.40;;;;;;5038476;28;19913;-56
2022/04/23 10:25:17;;;;;;;;;;;17.50;73.80;;;;;;5038784;28;19902;-57
2022/04/23 10:27:43;;;;;;;;;;;17.60;70.40;;;;;;5038678;28;19973;-60
2022/04/23 10:30:09;;;;;;;;;;;17.60;70.60;;;;;;5038768;28;19913;-57
2022/04/23 10:32:38;;;;;;;;;;;17.20;71.40;;;;;;5042394;28;19909;-57
2022/04/23 10:35:24;;;;;;;;;;;17.00;74.10;;;;;;5042473;28;19910;-58
2022/04/23 10:37:49;;;;;;;;;;;16.90;72.60;;;;;;5042385;28;19902;-56
2022/04/23 10:40:18;;;;;;;;;;;16.70;73.10;;;;;;5042484;28;19913;-56
2022/04/23 10:43:03;;;;;;;;;;;16.50;73.80;;;;;;5041898;28;19935;-58
2022/04/23 10:45:32;;;;;;;;;;;16.80;76.50;;;;;;5042214;28;19897;-58
2022/04/23 10:48:18;;;;;;;;;;;17.30;75.40;;;;;;5042361;28;19904;-59
2022/04/23 10:51:04;;;;;;;;;;;17.50;73.60;;;;;;5042135;28;19960;-59
2022/04/23 10:53:37;;;;;;;;;;;17.50;71.20;;;;;;5028425;28;19898;-56
2022/04/23 10:56:06;;;;;;;;;;;17.40;70.80;;;;;;5042151;28;19912;-57
2022/04/23 10:58:32;;;;;;;;;;;17.30;73.50;;;;;;5042078;28;19898;-57
2022/04/23 11:01:18;;;;;;;;;;;17.40;74.40;;;;;;5039742;28;19909;-59
2022/04/23 11:03:43;;;;;;;;;;;17.00;71.90;;;;;;5040384;28;19901;-60
2022/04/23 11:12:17;;;;;;;;;;;16.40;74.50;;;;;;5040843;28;19961;-58
2022/04/23 11:14:47;;;;;;;;;;;16.30;76.10;;;;;;5040887;28;20007;-60
2022/04/23 11:17:13;;;;;;;;;;;16.60;76.80;;;;;;5041129;28;19928;-61
2022/04/23 11:19:39;;;;;;;;;;;16.60;75.80;;;;;;5040779;28;19902;-57
2022/04/23 11:22:05;;;;;;;;;;;16.80;73.90;;;;;;5041072;28;19920;-58
2022/04/23 11:24:31;;;;;;;;;;;16.60;73.50;;;;;;5041338;28;19901;-58
2022/04/23 11:26:58;;;;;;;;;;;16.80;75.40;;;;;;5041337;28;19925;-60
2022/04/23 11:29:26;;;;;;;;;;;17.00;74.10;;;;;;5041187;28;19902;-59
2022/04/23 11:31:52;;;;;;;;;;;17.10;73.50;;;;;;5041169;28;19945;-57
2022/04/23 11:34:17;;;;;;;;;;;17.00;72.00;;;;;;5040977;28;19909;-55
2022/04/23 11:36:43;;;;;;;;;;;17.00;72.50;;;;;;5041205;28;19922;-56
2022/04/23 11:39:09;;;;;;;;;;;17.00;74.20;;;;;;5041029;28;19917;-56
2022/04/23 11:41:38;;;;;;;;;;;17.10;74.20;;;;;;5040969;28;19913;-56
2022/04/23 11:44:19;;;;;;;;;;;17.20;73.70;;;;;;5040269;28;19925;-55
2022/04/23 11:46:47;;;;;;;;;;;16.90;72.60;;;;;;5040731;28;19972;-56
2022/04/23 11:49:25;;;;;;;;;;;16.90;74.50;;;;;;5040771;28;19901;-53
2022/04/23 11:51:51;;;;;;;;;;;16.90;75.30;;;;;;5040689;28;19901;-55
2022/04/23 11:54:30;;;;;;;;;;;16.50;73.90;;;;;;5040633;28;19961;-55
2022/04/23 11:56:55;;;;;;;;;;;16.40;74.30;;;;;;5040727;28;19909;-56
2022/04/23 11:59:21;;;;;;;;;;;16.10;75.40;;;;;;5040548;28;19933;-56
2022/04/23 12:01:46;;;;;;;;;;;16.10;77.90;;;;;;5040387;28;19924;-57
2022/04/23 12:04:13;;;;;;;;;;;16.20;78.70;;;;;;5040537;28;19912;-57
2022/04/23 12:06:43;;;;;;;;;;;16.20;76.70;;;;;;5040525;28;19909;-56
2022/04/23 12:09:09;;;;;;;;;;;16.30;77.80;;;;;;5040584;28;19918;-57
2022/04/23 12:11:35;;;;;;;;;;;16.30;76.30;;;;;;5040326;28;19905;-57
2022/04/23 12:14:02;;;;;;;;;;;16.30;76.40;;;;;;5040262;28;19910;-55
2022/04/23 12:16:35;;;;;;;;;;;16.30;75.30;;;;;;5040202;28;19928;-58
2022/04/23 12:19:04;;;;;;;;;;;16.20;77.10;;;;;;5040440;28;19928;-55
2022/04/23 12:21:30;;;;;;;;;;;16.30;76.60;;;;;;5040194;28;19904;-55
2022/04/23 12:23:56;;;;;;;;;;;16.40;77.40;;;;;;5039662;28;19898;-56
2022/04/23 12:26:23;;;;;;;;;;;16.40;76.00;;;;;;5040193;28;19913;-56
2022/04/23 12:42:21;;;;;;;;;;;15.40;78.60;;;;;;5039873;28;19908;-56
2022/04/23 12:44:47;;;;;;;;;;;15.30;80.50;;;;;;5039962;28;19902;-57
2022/04/23 12:47:14;;;;;;;;;;;15.20;80.30;;;;;;5039862;28;19961;-56
2022/04/23 12:49:56;;;;;;;;;;;15.00;81.50;;;;;;5039939;28;20058;-58
2022/04/23 12:52:22;;;;;;;;;;;14.70;83.50;;;;;;5039765;28;19922;-56
2022/04/23 12:55:07;;;;;;;;;;;14.70;83.50;;;;;;5039090;28;19905;-58
2022/04/23 12:57:33;;;;;;;;;;;14.80;83.60;;;;;;5039921;28;19931;-59
2022/04/23 12:59:58;;;;;;;;;;;14.70;83.30;;;;;;5039738;28;19912;-57
2022/04/23 13:02:24;;;;;;;;;;;14.80;85.00;;;;;;5039821;28;19922;-56
2022/04/23 13:04:49;;;;;;;;;;;14.90;83.40;;;;;;5039834;28;19902;-56
2022/04/23 13:09:59;;;;;;;;;;;14.80;83.30;;;;;;5039488;28;19922;-58
2022/04/23 13:12:25;;;;;;;;;;;14.80;83.80;;;;;;5039354;28;19937;-56
2022/04/23 13:14:51;;;;;;;;;;;14.70;84.40;;;;;;5039445;28;19910;-56
2022/04/23 13:17:16;;;;;;;;;;;14.80;84.60;;;;;;5039369;28;19932;-57
2022/04/23 13:19:43;;;;;;;;;;;14.90;83.50;;;;;;5039338;28;19901;-58
2022/04/23 13:22:09;;;;;;;;;;;14.90;83.90;;;;;;5039002;28;19941;-56
2022/04/23 13:24:35;;;;;;;;;;;14.90;83.90;;;;;;5039342;28;19907;-58
2022/04/23 13:27:01;;;;;;;;;;;15.10;83.80;;;;;;5039229;28;19898;-57
2022/04/23 13:29:26;;;;;;;;;;;15.20;83.80;;;;;;5038667;28;19933;-58
2022/04/23 13:31:52;;;;;;;;;;;15.30;83.00;;;;;;5038153;28;19901;-56
2022/04/23 13:34:18;;;;;;;;;;;15.50;83.70;;;;;;5038934;28;19921;-56
2022/04/23 13:36:43;;;;;;;;;;;15.60;83.30;;;;;;5038534;28;19974;-57
2022/04/23 13:39:09;;;;;;;;;;;15.80;83.60;;;;;;5038932;28;19928;-57
2022/04/23 13:41:34;;;;;;;;;;;15.90;80.50;;;;;;5038820;28;19929;-57
2022/04/23 13:44:02;;;;;;;;;;;16.00;79.60;;;;;;5038918;28;19898;-58
2022/04/23 13:46:27;;;;;;;;;;;15.90;78.80;;;;;;5038842;28;19962;-57
2022/04/23 13:48:55;;;;;;;;;;;15.80;80.10;;;;;;5039092;28;19905;-56
2022/04/23 13:51:23;;;;;;;;;;;16.00;80.70;;;;;;5038889;28;19901;-58
2022/04/23 13:53:49;;;;;;;;;;;16.00;79.10;;;;;;5038748;28;19910;-56
2022/04/23 13:56:15;;;;;;;;;;;15.90;79.30;;;;;;5038825;28;19976;-56
2022/04/23 13:58:40;;;;;;;;;;;16.10;80.40;;;;;;5037956;28;19932;-58
2022/04/23 14:01:06;;;;;;;;;;;16.10;78.50;;;;;;5037831;28;19924;-56
2022/04/23 14:11:44;;;;;;;;;;;16.40;78.20;;;;;;5042746;28;19912;-56
2022/04/23 14:14:10;;;;;;;;;;;16.60;78.50;;;;;;5042468;28;19977;-58
2022/04/23 14:16:35;;;;;;;;;;;16.80;78.00;;;;;;5042613;28;19913;-57
2022/04/23 14:19:01;;;;;;;;;;;17.00;76.70;;;;;;5042463;28;19961;-56
2022/04/23 14:21:27;;;;;;;;;;;17.10;76.50;;;;;;5042287;28;19996;-56
2022/04/23 14:23:52;;;;;;;;;;;16.90;75.20;;;;;;5042376;28;19917;-56
2022/04/23 14:26:18;;;;;;;;;;;16.70;74.10;;;;;;5042449;28;19917;-57
2022/04/23 14:28:43;;;;;;;;;;;16.70;75.80;;;;;;5042256;28;19944;-58
2022/04/23 14:31:09;;;;;;;;;;;16.60;74.90;;;;;;5042260;28;19969;-59
2022/04/23 14:33:34;;;;;;;;;;;16.60;76.10;;;;;;5042230;28;19908;-56
2022/04/23 14:36:00;;;;;;;;;;;16.70;75.90;;;;;;5042360;28;19969;-58
2022/04/23 14:38:26;;;;;;;;;;;16.60;74.10;;;;;;5042295;28;19957;-55
2022/04/23 14:40:51;;;;;;;;;;;16.40;75.00;;;;;;5042339;28;19945;-56
2022/04/23 14:43:17;;;;;;;;;;;16.50;76.00;;;;;;5042114;28;19924;-57
2022/04/23 14:45:43;;;;;;;;;;;16.60;76.20;;;;;;5042243;28;19908;-58
2022/04/23 14:48:09;;;;;;;;;;;16.70;74.90;;;;;;5041957;28;19937;-59
2022/04/23 14:53:19;;;;;;;;;;;16.80;73.20;;;;;;5041938;28;19925;-56
2022/04/23 14:55:45;;;;;;;;;;;16.70;73.60;;;;;;5041940;28;19917;-58
2022/04/23 14:58:11;;;;;;;;;;;16.80;75.30;;;;;;5041667;28;19958;-55
2022/04/23 15:00:37;;;;;;;;;;;17.00;75.40;;;;;;5041817;28;19901;-56
2022/04/23 15:03:03;;;;;;;;;;;17.00;73.10;;;;;;5041786;28;19902;-57
2022/04/23 15:05:29;;;;;;;;;;;17.10;73.50;;;;;;5041675;28;19944;-58
2022/04/23 15:07:55;;;;;;;;;;;17.20;72.80;;;;;;5041658;28;19909;-56